createdAt,value
2019-02-26T00:04:29.788Z,27.27
2019-02-26T00:07:00.394Z,20.77
2019-02-26T00:09:31.994Z,24.40
2019-02-26T00:12:01.549Z,22.70
2019-02-26T00:14:31.179Z,22.83
2019-02-26T00:17:00.921Z,25.23
2019-02-26T00:19:30.776Z,25.67
2019-02-26T00:22:00.426Z,25.67
2019-02-26T00:24:30.765Z,22.70
2019-02-26T00:27:03.761Z,26.30
2019-02-26T00:29:33.097Z,23.27
2019-02-26T00:32:02.850Z,20.77
2019-02-26T00:34:34.480Z,26.33
2019-02-26T00:37:04.545Z,25.23
2019-02-26T00:39:35.190Z,29.20
2019-02-26T00:42:05.349Z,23.27
2019-02-26T00:44:37.178Z,27.27
2019-02-26T00:47:07.136Z,25.53
2019-02-26T00:49:37.837Z,20.63
2019-02-26T00:52:08.700Z,21.87
2019-02-26T00:54:38.934Z,21.60
2019-02-26T00:57:10.991Z,22.37
2019-02-26T00:59:41.244Z,20.87
2019-02-26T01:02:11.347Z,24.47
2019-02-26T01:04:41.577Z,29.33
2019-02-26T01:07:12.418Z,23.40
2019-02-26T01:09:42.092Z,25.93
2019-02-26T01:12:13.669Z,29.30
2019-02-26T01:14:44.085Z,26.93
2019-02-26T01:17:16.461Z,27.13
2019-02-26T01:19:46.120Z,29.33
2019-02-26T01:22:15.814Z,31.53
2019-02-26T01:24:45.557Z,28.73
2019-02-26T01:27:15.235Z,30.90
2019-02-26T01:29:47.336Z,26.50
2019-02-26T01:32:18.078Z,31.90
2019-02-26T01:34:49.474Z,29.97
2019-02-26T01:37:18.837Z,28.03
2019-02-26T01:39:50.169Z,24.03
2019-02-26T01:42:23.003Z,31.57
2019-02-26T01:44:51.447Z,33.53
2019-02-26T01:47:21.784Z,30.40
2019-02-26T01:49:52.499Z,31.27
2019-02-26T01:52:22.248Z,30.10
2019-02-26T01:54:53.519Z,30.97
2019-02-26T01:57:27.174Z,30.93
2019-02-26T01:59:54.783Z,30.57
2019-02-26T02:02:25.278Z,29.77
2019-02-26T02:04:57.268Z,30.27
2019-02-26T02:07:28.859Z,27.43
2019-02-26T02:10:00.581Z,27.87
2019-02-26T02:12:31.858Z,31.80
2019-02-26T02:15:04.010Z,29.07
2019-02-26T02:17:35.529Z,33.93
2019-02-26T02:20:07.954Z,28.60
2019-02-26T02:22:38.210Z,30.43
2019-02-26T02:25:09.269Z,30.07
2019-02-26T02:27:38.996Z,29.83
2019-02-26T02:30:18.562Z,28.40
2019-02-26T02:32:42.851Z,28.20
2019-02-26T02:35:15.435Z,30.70
2019-02-26T02:37:44.232Z,34.83
2019-02-26T02:40:14.362Z,34.30
2019-02-26T02:42:48.500Z,28.07
2019-02-26T02:45:20.101Z,29.07
2019-02-26T02:47:46.775Z,32.00
2019-02-26T02:50:18.438Z,30.87
2019-02-26T02:52:47.944Z,29.90
2019-02-26T02:55:19.267Z,31.63
2019-02-26T02:57:52.352Z,36.10
2019-02-26T03:00:22.778Z,34.47
2019-02-26T03:02:53.121Z,34.23
2019-02-26T03:05:23.418Z,33.97
2019-02-26T03:07:54.083Z,31.07
2019-02-26T03:10:28.425Z,30.10
2019-02-26T03:12:57.624Z,31.97
2019-02-26T03:15:29.344Z,31.83
2019-02-26T03:17:58.748Z,28.87
2019-02-26T03:20:30.832Z,29.37
2019-02-26T03:22:59.906Z,32.17
2019-02-26T03:25:29.587Z,34.60
2019-02-26T03:27:59.227Z,31.17
2019-02-26T03:30:36.895Z,35.07
2019-02-26T03:33:04.234Z,27.87
2019-02-26T03:35:31.721Z,31.70
2019-02-26T03:38:03.489Z,30.33
2019-02-26T03:40:34.098Z,28.67
2019-02-26T03:43:06.890Z,29.73
2019-02-26T03:45:35.631Z,29.73
2019-02-26T03:48:05.389Z,29.27
2019-02-26T03:50:35.121Z,31.97
2019-02-26T03:53:09.015Z,30.20
2019-02-26T03:55:38.803Z,30.37
2019-02-26T03:58:07.749Z,30.10
2019-02-26T04:00:38.685Z,31.37
2019-02-26T04:03:10.156Z,33.83
2019-02-26T04:05:40.147Z,35.40
2019-02-26T04:08:09.873Z,33.93
2019-02-26T04:10:39.576Z,33.20
2019-02-26T04:13:09.298Z,39.50
2019-02-26T04:15:38.979Z,34.43
2019-02-26T04:18:08.621Z,31.87
2019-02-26T04:20:43.403Z,38.97
2019-02-26T04:23:11.379Z,34.90
2019-02-26T04:26:31.457Z,38.47
2019-02-26T04:29:25.211Z,38.97
2019-02-26T04:32:36.312Z,33.90
2019-02-26T04:35:23.873Z,36.37
2019-02-26T04:38:29.086Z,36.40
2019-02-26T04:41:22.690Z,35.40
2019-02-26T04:44:47.654Z,30.97
2019-02-26T04:47:21.957Z,36.73
2019-02-26T04:49:51.072Z,37.00
2019-02-26T04:52:20.760Z,36.33
2019-02-26T04:54:50.444Z,40.43
2019-02-26T04:57:20.224Z,34.73
2019-02-26T04:59:49.959Z,34.87
2019-02-26T05:02:19.698Z,39.60
2019-02-26T05:04:49.364Z,41.03
2019-02-26T05:07:19.422Z,39.10
2019-02-26T05:09:51.063Z,40.33
2019-02-26T05:12:20.528Z,38.97
2019-02-26T05:14:50.326Z,38.83
2019-02-26T05:17:21.844Z,40.63
2019-02-26T05:19:51.797Z,39.90
2019-02-26T05:22:22.831Z,40.73
2019-02-26T05:24:52.994Z,39.67
2019-02-26T05:27:24.951Z,43.00
2019-02-26T05:29:54.853Z,36.73
2019-02-26T05:32:27.169Z,41.27
2019-02-26T05:34:56.097Z,37.33
2019-02-26T05:37:28.542Z,36.60
2019-02-26T05:39:57.175Z,39.50
2019-02-26T05:42:27.830Z,44.97
2019-02-26T05:45:00.829Z,43.23
2019-02-26T05:47:31.204Z,38.90
2019-02-26T05:50:02.729Z,41.20
2019-02-26T05:52:35.881Z,43.57
2019-02-26T05:55:06.114Z,41.67
2019-02-26T05:57:35.891Z,42.37
2019-02-26T06:00:08.399Z,42.57
2019-02-26T06:02:42.218Z,37.70
2019-02-26T06:05:14.271Z,43.60
2019-02-26T06:07:45.229Z,43.63
2019-02-26T06:10:15.070Z,46.67
2019-02-26T06:12:46.717Z,44.23
2019-02-26T06:15:16.350Z,41.30
2019-02-26T06:17:48.343Z,43.00
2019-02-26T06:20:23.415Z,46.60
2019-02-26T06:22:52.481Z,43.90
2019-02-26T06:25:24.506Z,47.13
2019-02-26T06:28:12.600Z,46.13
2019-02-26T06:30:42.040Z,45.90
2019-02-26T06:33:13.872Z,49.63
2019-02-26T06:35:43.258Z,42.70
2019-02-26T06:38:14.462Z,43.60
2019-02-26T06:40:47.048Z,42.77
2019-02-26T06:43:16.690Z,48.70
2019-02-26T06:45:47.808Z,53.13
2019-02-26T06:48:20.904Z,42.63
2019-02-26T06:50:51.850Z,44.60
2019-02-26T06:53:21.805Z,44.77
2019-02-26T06:55:51.523Z,45.47
2019-02-26T06:58:28.522Z,51.37
2019-02-26T07:01:01.152Z,47.43
2019-02-26T07:03:31.501Z,50.90
2019-02-26T07:06:03.179Z,49.20
2019-02-26T07:08:32.781Z,45.03
2019-02-26T07:11:03.800Z,43.77
2019-02-26T07:13:34.309Z,50.63
2019-02-26T07:16:08.495Z,47.33
2019-02-26T07:18:39.532Z,52.77
2019-02-26T07:21:15.105Z,54.47
2019-02-26T07:23:45.106Z,46.43
2019-02-26T07:26:16.064Z,44.70
2019-02-26T07:28:48.641Z,47.63
2019-02-26T07:31:19.834Z,56.83
2019-02-26T07:33:53.917Z,47.13
2019-02-26T07:36:28.170Z,50.57
2019-02-26T07:38:58.410Z,48.53
2019-02-26T07:41:36.840Z,58.13
2019-02-26T07:44:12.682Z,52.50
2019-02-26T07:46:40.234Z,57.33
2019-02-26T07:49:11.267Z,54.53
2019-02-26T07:51:42.902Z,54.30
2019-02-26T07:54:12.485Z,57.43
2019-02-26T07:56:43.428Z,53.13
2019-02-26T07:59:15.004Z,52.90
2019-02-26T08:01:47.021Z,61.77
2019-02-26T08:04:20.665Z,59.23
2019-02-26T08:06:52.369Z,52.83
2019-02-26T08:09:25.824Z,52.47
2019-02-26T08:11:56.031Z,54.80
2019-02-26T08:14:37.853Z,51.53
2019-02-26T08:17:08.188Z,53.87
2019-02-26T08:19:49.191Z,56.67
2019-02-26T08:22:31.719Z,58.83
2019-02-26T08:25:06.232Z,61.00
2019-02-26T08:27:40.676Z,53.60
2019-02-26T08:30:20.648Z,52.60
2019-02-26T08:32:54.282Z,60.40
2019-02-26T08:35:27.894Z,62.07
2019-02-26T08:37:58.194Z,55.83
2019-02-26T08:40:37.528Z,60.40
2019-02-26T08:43:08.675Z,59.90
2019-02-26T08:45:44.251Z,59.27
2019-02-26T08:48:17.775Z,56.60
2019-02-26T08:50:49.665Z,62.60
2019-02-26T08:53:21.951Z,58.43
2019-02-26T08:55:56.115Z,59.37
2019-02-26T08:58:28.141Z,56.90
2019-02-26T09:01:09.138Z,58.37
2019-02-26T09:03:41.077Z,55.57
2019-02-26T09:06:13.650Z,51.97
2019-02-26T09:08:44.855Z,62.83
2019-02-26T09:11:21.042Z,56.63
2019-02-26T09:13:59.392Z,66.00
2019-02-26T09:16:33.590Z,60.63
2019-02-26T09:19:20.234Z,66.07
2019-02-26T09:22:03.078Z,58.53
2019-02-26T09:24:38.992Z,60.30
2019-02-26T09:27:08.884Z,61.50
2019-02-26T09:29:48.352Z,58.67
2019-02-26T09:32:16.533Z,56.67
2019-02-26T09:34:45.880Z,56.47
2019-02-26T09:37:15.685Z,59.17
2019-02-26T09:39:48.706Z,61.43
2019-02-26T09:42:25.659Z,55.83
2019-02-26T09:45:01.960Z,62.27
2019-02-26T09:47:44.937Z,60.43
2019-02-26T09:50:29.575Z,64.47
2019-02-26T09:53:08.046Z,66.93
2019-02-26T09:55:41.813Z,65.13
2019-02-26T09:58:32.576Z,59.70
2019-02-26T10:01:10.896Z,65.47
2019-02-26T10:03:41.453Z,66.23
2019-02-26T10:06:14.157Z,69.40
2019-02-26T10:08:51.360Z,63.97
2019-02-26T10:11:30.816Z,72.53
2019-02-26T10:14:02.913Z,71.73
2019-02-26T10:16:34.829Z,66.47
2019-02-26T10:19:04.829Z,66.07
2019-02-26T10:21:37.522Z,66.43
2019-02-26T10:24:07.330Z,70.93
2019-02-26T10:26:39.296Z,73.33
2019-02-26T10:29:17.843Z,65.73
2019-02-26T10:31:49.008Z,73.93
2019-02-26T10:34:30.513Z,70.43
2019-02-26T10:37:07.922Z,70.90
2019-02-26T10:40:00.641Z,68.00
2019-02-26T10:42:43.112Z,68.37
2019-02-26T10:45:19.287Z,68.10
2019-02-26T10:48:02.563Z,76.33
2019-02-26T10:50:43.052Z,73.70
2019-02-26T10:53:26.218Z,71.73
2019-02-26T10:56:03.205Z,68.80
2019-02-26T10:58:42.930Z,70.10
2019-02-26T11:01:28.746Z,65.77
2019-02-26T11:04:08.451Z,60.30
2019-02-26T11:06:46.928Z,66.77
2019-02-26T11:09:26.448Z,66.63
2019-02-26T11:12:05.217Z,65.73
2019-02-26T11:14:36.437Z,65.03
2019-02-26T11:17:09.886Z,62.47
2019-02-26T11:19:49.899Z,68.43
2019-02-26T11:22:25.085Z,68.43
2019-02-26T11:24:56.193Z,59.20
2019-02-26T11:27:26.211Z,69.77
2019-02-26T11:29:57.824Z,62.77
2019-02-26T11:32:30.171Z,65.10
2019-02-26T11:35:02.495Z,63.27
2019-02-26T11:37:33.205Z,66.83
2019-02-26T11:40:05.631Z,65.17
2019-02-26T11:42:35.449Z,62.90
2019-02-26T11:45:08.872Z,67.20
2019-02-26T11:47:39.019Z,68.93
2019-02-26T11:50:10.094Z,61.60
2019-02-26T11:52:41.897Z,60.93
2019-02-26T11:55:12.028Z,60.97
2019-02-26T11:57:43.166Z,63.77
2019-02-26T12:00:24.222Z,63.37
2019-02-26T12:02:50.256Z,66.03
2019-02-26T12:05:20.318Z,60.63
2019-02-26T12:07:51.457Z,60.80
2019-02-26T12:10:23.366Z,59.33
2019-02-26T12:12:54.029Z,59.40
2019-02-26T12:15:24.584Z,61.27
2019-02-26T12:17:56.321Z,59.40
2019-02-26T12:20:25.564Z,59.10
2019-02-26T12:22:55.512Z,61.60
2019-02-26T12:25:25.230Z,66.53
2019-02-26T12:27:55.379Z,55.47
2019-02-26T12:30:25.353Z,63.63
2019-02-26T12:32:58.695Z,58.87
2019-02-26T12:35:44.353Z,60.33
2019-02-26T12:38:28.402Z,62.20
2019-02-26T12:41:24.524Z,64.67
2019-02-26T12:43:54.521Z,59.60
2019-02-26T12:46:27.525Z,61.43
2019-02-26T12:48:58.150Z,55.67
2019-02-26T12:51:37.026Z,51.93
2019-02-26T12:54:15.685Z,59.43
2019-02-26T12:56:46.528Z,59.00
2019-02-26T12:59:17.372Z,62.33
2019-02-26T13:02:00.435Z,63.40
2019-02-26T13:04:41.010Z,59.17
2019-02-26T13:07:28.193Z,67.20
2019-02-26T13:10:05.810Z,65.60
2019-02-26T13:12:55.041Z,59.57
2019-02-26T13:15:25.098Z,61.77
2019-02-26T13:18:05.825Z,63.80
2019-02-26T13:20:36.227Z,59.83
2019-02-26T13:23:16.956Z,56.00
2019-02-26T13:25:51.480Z,58.20
2019-02-26T13:28:41.376Z,56.47
2019-02-26T13:31:22.499Z,55.13
2019-02-26T13:34:17.995Z,52.70
2019-02-26T13:37:01.044Z,55.67
2019-02-26T13:39:38.578Z,53.07
2019-02-26T13:42:19.143Z,51.57
2019-02-26T13:44:49.468Z,58.47
2019-02-26T13:47:20.079Z,51.30
2019-02-26T13:50:20.309Z,46.20
2019-02-26T13:52:59.070Z,51.50
2019-02-26T13:55:38.377Z,48.77
2019-02-26T13:58:19.664Z,52.17
2019-02-26T14:01:04.159Z,48.40
2019-02-26T14:04:05.411Z,51.60
2019-02-26T14:06:48.547Z,57.47
2019-02-26T14:09:34.669Z,52.07
2019-02-26T14:12:03.239Z,55.57
2019-02-26T14:14:35.021Z,51.93
2019-02-26T14:17:15.806Z,47.63
2019-02-26T14:19:46.528Z,51.30
2019-02-26T14:22:17.818Z,47.23
2019-02-26T14:24:48.750Z,54.57
2019-02-26T14:27:25.179Z,47.07
2019-02-26T14:29:58.267Z,52.43
2019-02-26T14:32:37.698Z,52.50
2019-02-26T14:35:16.174Z,47.67
2019-02-26T14:37:57.393Z,51.50
2019-02-26T14:40:31.578Z,48.63
2019-02-26T14:43:02.625Z,59.03
2019-02-26T14:45:33.574Z,52.87
2019-02-26T14:48:03.293Z,58.97
2019-02-26T14:50:33.263Z,47.43
2019-02-26T14:53:02.923Z,50.50
2019-02-26T14:55:34.663Z,49.43
2019-02-26T14:58:11.866Z,50.70
2019-02-26T15:01:00.447Z,47.93
2019-02-26T15:03:58.447Z,48.07
2019-02-26T15:06:40.051Z,51.67
2019-02-26T15:09:31.642Z,50.07
2019-02-26T15:12:13.265Z,47.77
2019-02-26T15:14:57.881Z,55.53
2019-02-26T15:17:37.629Z,48.57
2019-02-26T15:20:09.301Z,50.20
2019-02-26T15:22:50.482Z,45.17
2019-02-26T15:25:34.884Z,46.07
2019-02-26T15:28:14.876Z,44.27
2019-02-26T15:30:56.157Z,41.43
2019-02-26T15:33:38.075Z,43.27
2019-02-26T15:36:19.336Z,44.23
2019-02-26T15:38:58.237Z,54.53
2019-02-26T15:41:29.353Z,44.93
2019-02-26T15:43:59.303Z,46.50
2019-02-26T15:46:31.468Z,48.60
2019-02-26T15:49:07.690Z,49.57
2019-02-26T15:51:43.788Z,47.90
2019-02-26T15:54:18.998Z,45.43
2019-02-26T15:56:50.358Z,48.63
2019-02-26T15:59:26.235Z,41.93
2019-02-26T16:02:04.728Z,45.17
2019-02-26T16:04:43.031Z,46.17
2019-02-26T16:07:17.866Z,45.47
2019-02-26T16:09:56.435Z,44.13
2019-02-26T16:12:31.497Z,45.00
2019-02-26T16:15:14.577Z,45.23
2019-02-26T16:17:45.377Z,46.60
2019-02-26T16:20:18.801Z,42.50
2019-02-26T16:22:51.267Z,50.03
2019-02-26T16:25:26.945Z,55.20
2019-02-26T16:27:58.037Z,49.57
2019-02-26T16:30:34.069Z,49.63
2019-02-26T16:33:23.914Z,53.23
2019-02-26T16:35:57.402Z,56.17
2019-02-26T16:38:24.895Z,51.77
2019-02-26T16:40:54.617Z,49.90
2019-02-26T16:43:24.417Z,51.40
2019-02-26T16:45:56.859Z,50.77
2019-02-26T16:48:32.085Z,53.97
2019-02-26T16:51:21.806Z,49.27
2019-02-26T16:53:55.957Z,52.00
2019-02-26T16:56:39.417Z,55.07
2019-02-26T16:59:31.114Z,52.00
2019-02-26T17:02:01.909Z,49.13
2019-02-26T17:04:33.759Z,52.87
2019-02-26T17:07:09.941Z,51.53
2019-02-26T17:09:50.196Z,53.77
2019-02-26T17:12:35.244Z,56.37
2019-02-26T17:15:18.137Z,53.07
2019-02-26T17:17:48.182Z,57.87
2019-02-26T17:20:22.216Z,57.33
2019-02-26T17:22:59.610Z,56.60
2019-02-26T17:25:37.084Z,53.00
2019-02-26T17:28:17.495Z,48.87
2019-02-26T17:31:24.939Z,49.50
2019-02-26T17:34:25.821Z,58.13
2019-02-26T17:37:10.754Z,50.73
2019-02-26T17:39:52.333Z,68.73
2019-02-26T17:42:24.161Z,57.90
2019-02-26T17:44:55.726Z,61.97
2019-02-26T17:47:30.455Z,61.40
2019-02-26T17:50:05.025Z,64.73
2019-02-26T17:52:41.741Z,62.47
2019-02-26T17:55:15.658Z,63.33
2019-02-26T17:57:47.031Z,56.83
2019-02-26T18:00:20.339Z,71.63
2019-02-26T18:03:00.500Z,63.47
2019-02-26T18:05:50.996Z,67.90
2019-02-26T18:08:23.774Z,66.27
2019-02-26T18:11:09.628Z,59.83
2019-02-26T18:13:47.857Z,63.23
2019-02-26T18:19:50.081Z,56.87
2019-02-26T18:22:54.129Z,62.07
2019-02-26T18:25:32.052Z,67.87
2019-02-26T18:28:19.284Z,66.67
2019-02-26T18:31:03.390Z,69.20
2019-02-26T18:34:14.049Z,68.20
2019-02-26T18:36:57.137Z,67.23
2019-02-26T18:39:41.045Z,65.43
2019-02-26T18:42:24.668Z,69.77
2019-02-26T18:45:39.451Z,70.97
2019-02-26T18:48:18.945Z,76.27
2019-02-26T18:51:10.508Z,73.43
2019-02-26T18:53:40.726Z,73.10
2019-02-26T18:56:16.499Z,73.20
2019-02-26T18:58:49.084Z,72.93
2019-02-26T19:01:18.775Z,73.23
2019-02-26T19:03:50.918Z,83.17
2019-02-26T19:06:20.796Z,75.00
2019-02-26T19:08:50.501Z,77.40
2019-02-26T19:11:20.267Z,71.20
2019-02-26T19:13:50.112Z,66.47
2019-02-26T19:16:20.755Z,77.13
2019-02-26T19:18:50.941Z,81.70
2019-02-26T19:21:21.843Z,78.30
2019-02-26T19:23:52.058Z,80.00
2019-02-26T19:26:21.872Z,85.63
2019-02-26T19:28:59.029Z,79.97
2019-02-26T19:31:29.937Z,74.83
2019-02-26T19:34:01.475Z,71.40
2019-02-26T19:36:31.258Z,65.43
2019-02-26T19:39:04.472Z,76.50
2019-02-26T19:41:34.622Z,95.30
2019-02-26T19:44:04.288Z,144.33
2019-02-26T19:46:34.055Z,212.23
2019-02-26T19:49:05.805Z,170.60
2019-02-26T19:51:35.383Z,179.23
2019-02-26T19:54:06.916Z,196.53
2019-02-26T19:56:36.387Z,150.67
2019-02-26T19:59:06.386Z,186.33
2019-02-26T20:01:36.102Z,194.73
2019-02-26T20:04:05.861Z,185.47
2019-02-26T20:06:35.722Z,189.80
2019-02-26T20:09:07.416Z,127.83
2019-02-26T20:11:37.189Z,126.30
2019-02-26T20:14:11.333Z,115.57
2019-02-26T20:16:38.835Z,123.40
2019-02-26T20:19:08.538Z,135.33
2019-02-26T20:21:38.300Z,124.30
2019-02-26T20:24:08.052Z,99.07
2019-02-26T20:26:38.083Z,102.83
2019-02-26T20:29:08.371Z,91.50
2019-02-26T20:31:38.256Z,95.33
2019-02-26T20:34:09.468Z,92.67
2019-02-26T20:36:39.278Z,93.03
2019-02-26T20:39:09.211Z,86.50
2019-02-26T20:41:38.872Z,88.70
2019-02-26T20:44:10.223Z,81.73
2019-02-26T20:46:40.226Z,91.73
2019-02-26T20:49:12.258Z,87.07
2019-02-26T20:51:41.387Z,91.90
2019-02-26T20:54:11.690Z,85.40
2019-02-26T20:56:42.031Z,90.53
2019-02-26T20:59:11.762Z,87.93
2019-02-26T21:01:43.025Z,83.30
2019-02-26T21:04:12.828Z,88.17
2019-02-26T21:06:43.359Z,87.27
2019-02-26T21:09:13.081Z,88.97
2019-02-26T21:11:42.756Z,103.60
2019-02-26T21:14:13.571Z,93.40
2019-02-26T21:16:43.245Z,89.73
2019-02-26T21:19:13.073Z,102.57
2019-02-26T21:21:42.815Z,90.77
2019-02-26T21:24:12.554Z,99.77
2019-02-26T21:26:42.489Z,95.07
2019-02-26T21:29:13.367Z,90.17
2019-02-26T21:31:44.122Z,88.67
2019-02-26T21:34:13.766Z,89.63
2019-02-26T21:36:43.478Z,93.07
2019-02-26T21:39:13.359Z,103.07
2019-02-26T21:41:44.196Z,104.37
2019-02-26T21:44:13.960Z,83.00
2019-02-26T21:46:43.671Z,102.90
2019-02-26T21:49:13.433Z,91.17
2019-02-26T21:51:43.198Z,87.33
2019-02-26T21:54:12.867Z,84.20
2019-02-26T21:56:42.572Z,88.20
2019-02-26T21:59:12.248Z,96.20
2019-02-26T22:01:45.834Z,92.97
2019-02-26T22:04:13.304Z,90.00
2019-02-26T22:06:44.916Z,85.83
2019-02-26T22:09:14.339Z,90.30
2019-02-26T22:11:44.037Z,88.10
2019-02-26T22:14:17.879Z,78.67
2019-02-26T22:16:48.943Z,94.60
2019-02-26T22:19:18.907Z,83.63
2019-02-26T22:21:53.398Z,82.43
2019-02-26T22:24:23.063Z,87.73
2019-02-26T22:26:52.817Z,94.53
2019-02-26T22:29:22.510Z,85.13
2019-02-26T22:31:52.261Z,86.37
2019-02-26T22:34:22.018Z,86.53
2019-02-26T22:36:51.770Z,97.03
2019-02-26T22:39:22.768Z,90.57
2019-02-26T22:41:52.880Z,92.17
2019-02-26T22:44:22.735Z,85.60
2019-02-26T22:46:52.396Z,82.00
2019-02-26T22:49:22.321Z,92.37
2019-02-26T22:51:52.207Z,96.37
2019-02-26T22:54:22.003Z,88.70
2019-02-26T22:56:51.739Z,91.90
2019-02-26T22:59:21.368Z,93.37
2019-02-26T23:01:51.107Z,80.93
2019-02-26T23:04:20.927Z,93.03
2019-02-26T23:06:50.653Z,94.20
2019-02-26T23:09:23.900Z,89.03
2019-02-26T23:11:53.741Z,92.70
2019-02-26T23:14:23.843Z,92.33
2019-02-26T23:16:53.551Z,99.40
2019-02-26T23:19:23.358Z,115.67
2019-02-26T23:21:53.310Z,100.00
2019-02-26T23:24:22.959Z,95.70
2019-02-26T23:26:52.730Z,94.00
2019-02-26T23:29:22.598Z,87.00
2019-02-26T23:31:52.399Z,91.77
2019-02-26T23:34:22.769Z,96.17
2019-02-26T23:36:52.621Z,90.13
2019-02-26T23:39:22.455Z,88.23
2019-02-26T23:41:52.217Z,83.33
2019-02-26T23:44:21.950Z,86.50
2019-02-26T23:46:51.610Z,81.53
2019-02-26T23:49:21.458Z,89.03
2019-02-26T23:51:54.563Z,80.30
2019-02-26T23:54:24.530Z,85.77
2019-02-26T23:56:54.326Z,87.77
2019-02-26T23:59:24.014Z,91.63
